Time;durP1;ratioP1;P1;durP2;ratioP2;P2;SDS_P1;SDS_P2;PMS_P1;PMS_P2;Temp;Humidity;BMP_temperature;BMP_pressure;BME280_temperature;BME280_humidity;BME280_pressure;Samples;Min_cycle;Max_cycle;Signal;HPM_P1;HPM_P2
2021/07/10 00:01:38;;;;;;;7.57;5.35;;;29.60;43.00;;;;;;4255264;33;20156;-37
2021/07/10 00:04:06;;;;;;;6.72;4.45;;;29.70;43.20;;;;;;4255626;33;20065;-37
2021/07/10 00:06:33;;;;;;;5.93;4.50;;;29.60;43.20;;;;;;4268875;33;20106;-37
2021/07/10 00:08:59;;;;;;;5.35;4.75;;;29.60;43.30;;;;;;4283638;33;20539;-37
2021/07/10 00:11:25;;;;;;;5.22;4.57;;;29.50;43.30;;;;;;4283802;33;20061;-37
2021/07/10 00:13:53;;;;;;;8.95;5.18;;;29.50;43.40;;;;;;4283231;33;20186;-35
2021/07/10 00:16:19;;;;;;;7.65;5.35;;;29.50;43.50;;;;;;4284074;33;20955;-37
2021/07/10 00:18:45;;;;;;;11.50;5.03;;;29.50;43.60;;;;;;4283445;33;20087;-36
2021/07/10 00:21:12;;;;;;;9.93;6.12;;;29.50;43.70;;;;;;4283397;33;20133;-37
2021/07/10 00:23:38;;;;;;;6.87;5.60;;;29.50;43.70;;;;;;4283579;33;20712;-37
2021/07/10 00:26:05;;;;;;;11.48;5.82;;;29.50;43.70;;;;;;4284068;33;20083;-36
2021/07/10 00:28:31;;;;;;;9.48;5.80;;;29.50;43.70;;;;;;4321978;33;20063;-36
2021/07/10 00:30:57;;;;;;;8.15;5.28;;;29.50;43.70;;;;;;4330897;33;20160;-37
2021/07/10 00:33:24;;;;;;;6.60;5.47;;;29.50;43.70;;;;;;4326805;33;20551;-36
2021/07/10 00:35:50;;;;;;;8.68;5.37;;;29.50;43.80;;;;;;4327303;33;20094;-37
2021/07/10 00:38:17;;;;;;;10.20;5.37;;;29.50;43.70;;;;;;4327232;33;20063;-37
2021/07/10 00:40:43;;;;;;;8.25;6.03;;;29.50;43.80;;;;;;4314869;33;20256;-37
2021/07/10 00:43:10;;;;;;;10.48;5.85;;;29.50;43.80;;;;;;4327039;33;20067;-36
2021/07/10 00:45:36;;;;;;;8.35;5.43;;;29.50;43.90;;;;;;4326743;33;20063;-38
2021/07/10 00:48:03;;;;;;;11.23;6.35;;;29.50;43.90;;;;;;4326844;33;20094;-36
2021/07/10 00:50:29;;;;;;;7.45;5.80;;;29.50;43.90;;;;;;4270708;33;20088;-35
2021/07/10 00:52:56;;;;;;;9.63;6.85;;;29.50;43.90;;;;;;4283551;33;20136;-36
2021/07/10 00:55:23;;;;;;;13.02;5.62;;;29.50;43.80;;;;;;4271413;33;20060;-36
2021/07/10 00:57:49;;;;;;;7.45;5.75;;;29.60;43.80;;;;;;4265004;33;20119;-36
2021/07/10 01:00:18;;;;;;;7.97;5.95;;;29.50;43.90;;;;;;4285901;33;20067;-35
2021/07/10 01:02:47;;;;;;;9.48;5.85;;;29.50;44.00;;;;;;4297795;33;20150;-36
2021/07/10 01:05:23;;;;;;;11.93;6.70;;;29.50;44.10;;;;;;4285328;33;20586;-36
2021/07/10 01:07:50;;;;;;;9.52;6.43;;;29.50;44.20;;;;;;4297729;33;20063;-37
2021/07/10 01:10:16;;;;;;;15.10;6.93;;;29.50;44.10;;;;;;4300833;33;20094;-36
2021/07/10 01:12:44;;;;;;;12.13;6.15;;;29.50;44.20;;;;;;4299693;33;20106;-37
2021/07/10 01:15:12;;;;;;;9.82;5.95;;;29.60;44.10;;;;;;4300065;33;20067;-38
2021/07/10 01:17:39;;;;;;;10.02;7.07;;;29.70;44.10;;;;;;4287957;33;20067;-35
2021/07/10 01:20:11;;;;;;;13.82;8.82;;;29.70;43.90;;;;;;4312213;33;20082;-36
2021/07/10 01:22:38;;;;;;;17.30;7.68;;;29.80;44.00;;;;;;4316592;33;20066;-38
2021/07/10 01:25:08;;;;;;;13.45;7.55;;;29.90;43.80;;;;;;4330024;33;20063;-37
2021/07/10 01:27:35;;;;;;;15.73;8.00;;;29.90;43.70;;;;;;4343276;33;20056;-37
2021/07/10 01:30:20;;;;;;;11.73;6.55;;;29.90;43.70;;;;;;4343365;33;20572;-36
2021/07/10 01:32:49;;;;;;;12.82;7.15;;;29.90;43.70;;;;;;4343670;33;20097;-36
2021/07/10 01:35:15;;;;;;;13.25;7.65;;;29.90;43.90;;;;;;4329753;33;20522;-43
2021/07/10 01:37:42;;;;;;;12.15;7.40;;;29.90;43.90;;;;;;4311440;33;20501;-37
2021/07/10 01:40:11;;;;;;;11.88;7.97;;;29.90;43.90;;;;;;4311493;33;20063;-36
2021/07/10 01:42:37;;;;;;;12.57;8.07;;;29.90;44.00;;;;;;4311628;33;20075;-35
2021/07/10 01:45:05;;;;;;;11.12;6.45;;;30.00;44.10;;;;;;4299687;33;20059;-37
2021/07/10 01:47:33;;;;;;;11.70;7.40;;;30.10;44.00;;;;;;4311264;33;20129;-37
2021/07/10 01:50:00;;;;;;;8.68;6.65;;;30.20;43.90;;;;;;4311250;33;20074;-36
2021/07/10 01:52:26;;;;;;;15.07;6.87;;;30.20;43.80;;;;;;4311585;33;20487;-37
2021/07/10 01:54:53;;;;;;;11.63;6.53;;;30.30;43.70;;;;;;4299711;33;20471;-37
2021/07/10 01:57:19;;;;;;;15.45;6.37;;;30.40;43.60;;;;;;4301791;33;20051;-37
2021/07/10 01:59:46;;;;;;;11.80;6.45;;;30.50;43.60;;;;;;4313879;33;20071;-37
2021/07/10 02:02:12;;;;;;;9.68;5.35;;;30.60;43.30;;;;;;4313830;33;20159;-38
2021/07/10 02:04:46;;;;;;;8.50;4.25;;;30.70;43.30;;;;;;4326360;33;20139;-37
2021/07/10 02:07:14;;;;;;;7.03;5.53;;;30.70;43.00;;;;;;4338593;33;20086;-36
2021/07/10 02:09:41;;;;;;;9.85;6.22;;;30.80;42.90;;;;;;4356156;32;20712;-36
2021/07/10 02:12:08;;;;;;;8.85;5.10;;;30.80;42.80;;;;;;4344181;32;20217;-36
2021/07/10 02:14:34;;;;;;;8.13;6.00;;;30.90;42.60;;;;;;4358298;32;20160;-37
2021/07/10 02:17:01;;;;;;;10.52;6.37;;;30.90;42.60;;;;;;4313788;33;20079;-36
2021/07/10 02:19:27;;;;;;;8.25;6.72;;;31.00;42.40;;;;;;4325815;33;20077;-37
2021/07/10 02:21:54;;;;;;;13.05;5.20;;;31.10;42.50;;;;;;4313828;33;20091;-37
2021/07/10 02:24:20;;;;;;;7.47;5.43;;;31.20;42.30;;;;;;4313759;33;20102;-37
2021/07/10 02:26:47;;;;;;;7.95;4.65;;;31.30;42.10;;;;;;4325721;33;20156;-37
2021/07/10 02:29:13;;;;;;;9.43;4.55;;;31.40;41.90;;;;;;4313765;33;20222;-37
2021/07/10 02:31:40;;;;;;;9.75;5.15;;;31.50;41.70;;;;;;4313389;33;20286;-37
2021/07/10 02:34:07;;;;;;;11.38;5.43;;;31.60;41.70;;;;;;4325876;33;20071;-37
2021/07/10 02:36:34;;;;;;;4.60;3.55;;;31.60;41.60;;;;;;4313232;33;20089;-37
2021/07/10 02:39:00;;;;;;;8.52;3.72;;;31.70;41.40;;;;;;4314190;33;20077;-36
2021/07/10 02:41:27;;;;;;;3.72;2.25;;;31.60;41.20;;;;;;4328560;33;20516;-37
2021/07/10 02:43:53;;;;;;;6.57;4.80;;;31.60;41.40;;;;;;4316813;33;20083;-36
2021/07/10 02:46:20;;;;;;;7.97;5.93;;;31.60;41.40;;;;;;4316952;33;21399;-36
2021/07/10 02:48:47;;;;;;;2.47;1.85;;;31.70;41.30;;;;;;4354849;32;20223;-36
2021/07/10 02:51:14;;;;;;;5.03;3.75;;;31.70;41.20;;;;;;4346785;32;20070;-38
2021/07/10 02:53:41;;;;;;;6.35;3.53;;;31.70;41.20;;;;;;4360635;32;20179;-37
2021/07/10 02:56:07;;;;;;;8.68;5.18;;;31.70;41.20;;;;;;4346735;32;20534;-37
2021/07/10 02:58:34;;;;;;;6.95;5.10;;;31.70;41.20;;;;;;4319852;33;20063;-35
2021/07/10 03:01:00;;;;;;;6.32;4.68;;;31.80;41.10;;;;;;4345951;33;20040;-36
2021/07/10 03:03:30;;;;;;;10.88;5.28;;;31.90;41.00;;;;;;4332163;33;20149;-37
2021/07/10 03:05:56;;;;;;;6.40;4.80;;;32.00;40.90;;;;;;4345128;33;20524;-37
2021/07/10 03:08:22;;;;;;;9.27;4.87;;;32.10;40.60;;;;;;4331468;33;20087;-37
2021/07/10 03:10:49;;;;;;;8.27;6.10;;;32.20;40.50;;;;;;4331919;33;20542;-37
2021/07/10 03:13:16;;;;;;;12.02;6.30;;;32.30;40.40;;;;;;4345471;33;20090;-37
2021/07/10 03:15:42;;;;;;;10.32;7.47;;;32.40;40.20;;;;;;4331962;33;20089;-37
2021/07/10 03:18:09;;;;;;;6.30;4.40;;;32.50;40.20;;;;;;4345584;33;20068;-37
2021/07/10 03:20:35;;;;;;;8.52;4.30;;;32.60;39.70;;;;;;4331823;33;20062;-37
2021/07/10 03:23:02;;;;;;;3.85;2.70;;;32.70;39.40;;;;;;4345822;33;20515;-37
2021/07/10 03:25:28;;;;;;;7.62;5.47;;;32.70;39.20;;;;;;4287245;33;20076;-36
2021/07/10 03:27:57;;;;;;;5.82;5.20;;;32.70;39.20;;;;;;4286604;33;20111;-37
2021/07/10 03:30:24;;;;;;;7.90;5.75;;;32.80;39.30;;;;;;4298400;33;20072;-37
2021/07/10 03:32:51;;;;;;;9.00;5.75;;;32.80;39.20;;;;;;4286708;33;20592;-38
2021/07/10 03:35:18;;;;;;;5.72;5.03;;;32.90;39.20;;;;;;4298464;33;20083;-36
2021/07/10 03:37:46;;;;;;;5.28;2.58;;;33.00;39.20;;;;;;4298319;33;20544;-36
2021/07/10 03:40:14;;;;;;;9.18;5.60;;;33.10;38.70;;;;;;4298146;33;20063;-36
2021/07/10 03:42:41;;;;;;;6.90;4.43;;;33.30;38.80;;;;;;4298505;33;20092;-38
2021/07/10 03:45:10;;;;;;;6.72;5.43;;;33.30;38.20;;;;;;4298735;33;20103;-38
2021/07/10 03:47:36;;;;;;;10.60;5.03;;;33.40;38.40;;;;;;4298300;33;20071;-37
2021/07/10 03:50:08;;;;;;;11.95;6.55;;;33.40;38.50;;;;;;4298674;33;20087;-37
2021/07/10 03:52:35;;;;;;;7.37;4.65;;;33.40;38.20;;;;;;4286068;33;20079;-37
2021/07/10 03:55:03;;;;;;;8.05;5.70;;;33.50;38.20;;;;;;4298947;33;20068;-37
2021/07/10 03:57:29;;;;;;;8.45;5.95;;;33.60;38.30;;;;;;4302439;33;20075;-37
2021/07/10 03:59:55;;;;;;;7.22;5.60;;;33.60;38.00;;;;;;4313819;33;20583;-38
2021/07/10 04:02:22;;;;;;;3.87;2.28;;;33.70;38.10;;;;;;4321830;33;20170;-38
2021/07/10 04:04:48;;;;;;;9.57;5.87;;;33.80;37.90;;;;;;4344898;33;20071;-36
2021/07/10 04:07:15;;;;;;;2.65;1.77;;;33.90;37.50;;;;;;4330869;33;20070;-37
2021/07/10 04:09:41;;;;;;;8.43;5.37;;;34.00;36.80;;;;;;4344746;33;20102;-37
2021/07/10 04:12:08;;;;;;;7.00;5.28;;;34.00;36.30;;;;;;4344664;33;20066;-36
2021/07/10 04:14:36;;;;;;;6.05;4.25;;;34.10;36.30;;;;;;4331002;33;20611;-37
2021/07/10 04:17:04;;;;;;;8.65;5.70;;;34.10;36.30;;;;;;4344839;33;20075;-38
2021/07/10 04:19:30;;;;;;;8.98;5.32;;;34.20;36.00;;;;;;4330737;33;20536;-38
2021/07/10 04:21:57;;;;;;;9.40;3.75;;;34.10;35.80;;;;;;4330412;33;20090;-38
2021/07/10 04:24:23;;;;;;;5.62;3.60;;;34.10;35.80;;;;;;4344256;33;20075;-37
2021/07/10 04:26:50;;;;;;;5.65;4.47;;;34.10;35.90;;;;;;4344516;33;20074;-37
2021/07/10 04:29:17;;;;;;;11.82;5.82;;;34.10;36.00;;;;;;4330732;33;20463;-37
2021/07/10 04:31:43;;;;;;;8.48;5.95;;;34.20;36.00;;;;;;4330859;33;20077;-37
2021/07/10 04:34:09;;;;;;;8.18;5.15;;;34.20;36.00;;;;;;4344334;33;20062;-38
2021/07/10 04:36:36;;;;;;;7.00;5.18;;;34.40;35.70;;;;;;4344367;33;20151;-38
2021/07/10 04:39:03;;;;;;;6.68;5.93;;;34.50;35.70;;;;;;4344551;33;20141;-39
2021/07/10 04:41:29;;;;;;;6.47;5.65;;;34.60;35.70;;;;;;4343871;33;20066;-39
2021/07/10 04:43:56;;;;;;;7.15;3.95;;;34.60;35.30;;;;;;4344460;33;20089;-37
2021/07/10 04:46:22;;;;;;;4.28;3.85;;;34.60;35.30;;;;;;4330875;33;20071;-37
2021/07/10 04:48:49;;;;;;;11.07;6.32;;;34.70;35.20;;;;;;4343997;33;20071;-37
2021/07/10 04:51:16;;;;;;;8.82;5.40;;;34.70;35.20;;;;;;4297483;33;20067;-37
2021/07/10 04:53:42;;;;;;;9.10;6.87;;;34.80;34.90;;;;;;4297665;33;20076;-37
2021/07/10 04:56:08;;;;;;;7.65;5.47;;;34.90;35.00;;;;;;4297702;33;20100;-37
2021/07/10 04:58:35;;;;;;;17.20;7.53;;;35.10;34.40;;;;;;4307964;33;20067;-37
2021/07/10 05:01:01;;;;;;;11.25;7.82;;;35.20;34.30;;;;;;4312292;33;20562;-37
2021/07/10 05:03:28;;;;;;;8.25;4.37;;;35.20;34.20;;;;;;4312099;33;20555;-38
2021/07/10 05:05:54;;;;;;;11.52;7.20;;;35.30;34.00;;;;;;4304678;33;20071;-38
2021/07/10 05:08:21;;;;;;;13.85;8.93;;;35.30;33.90;;;;;;4326701;33;20071;-38
2021/07/10 05:10:47;;;;;;;17.85;8.05;;;35.50;33.80;;;;;;4326706;33;20079;-37
2021/07/10 05:13:14;;;;;;;10.80;7.93;;;35.70;33.50;;;;;;4314853;33;20071;-38
2021/07/10 05:15:42;;;;;;;7.93;6.55;;;35.80;33.20;;;;;;4297050;33;20155;-38
2021/07/10 05:18:09;;;;;;;14.50;7.68;;;35.90;33.20;;;;;;4297675;33;20076;-38
2021/07/10 05:20:35;;;;;;;8.80;6.90;;;36.00;33.30;;;;;;4297923;33;20143;-38
2021/07/10 05:23:02;;;;;;;14.07;6.57;;;36.20;33.20;;;;;;4285091;33;20080;-39
2021/07/10 05:25:28;;;;;;;7.70;4.15;;;36.40;32.60;;;;;;4297584;33;20468;-39
2021/07/10 05:27:55;;;;;;;7.75;4.32;;;36.50;32.20;;;;;;4297235;33;20068;-38
2021/07/10 05:30:21;;;;;;;4.07;2.55;;;36.40;32.00;;;;;;4297136;33;20117;-38
2021/07/10 05:32:48;;;;;;;5.22;3.42;;;36.40;32.00;;;;;;4284773;33;20076;-38
2021/07/10 05:35:18;;;;;;;15.63;7.95;;;36.40;32.20;;;;;;4296994;33;20121;-37
2021/07/10 05:37:46;;;;;;;7.25;6.15;;;36.30;32.50;;;;;;4296770;33;20059;-37
2021/07/10 05:40:13;;;;;;;12.20;6.78;;;36.40;32.70;;;;;;4299689;33;20488;-37
2021/07/10 05:42:39;;;;;;;8.85;6.57;;;36.50;32.50;;;;;;4328996;33;20087;-38
2021/07/10 05:45:07;;;;;;;5.28;2.55;;;36.60;32.50;;;;;;4303383;33;20532;-37
2021/07/10 05:47:34;;;;;;;6.30;3.53;;;36.70;32.40;;;;;;4314931;33;20230;-37
2021/07/10 05:50:01;;;;;;;7.40;4.35;;;36.70;31.60;;;;;;4328952;33;20164;-37
2021/07/10 05:52:27;;;;;;;6.85;2.85;;;36.70;31.50;;;;;;4314741;33;20471;-37
2021/07/10 05:54:53;;;;;;;7.00;4.32;;;36.60;31.30;;;;;;4328646;33;20083;-37
2021/07/10 05:57:20;;;;;;;5.62;3.58;;;36.70;31.30;;;;;;4315063;33;20059;-37
2021/07/10 05:59:46;;;;;;;7.80;4.78;;;36.70;31.00;;;;;;4314741;33;20130;-37
2021/07/10 06:02:13;;;;;;;9.32;6.12;;;36.70;30.80;;;;;;4328640;33;20067;-37
2021/07/10 06:04:39;;;;;;;11.93;6.62;;;36.70;30.90;;;;;;4291158;33;20071;-37
2021/07/10 06:07:09;;;;;;;11.65;6.82;;;36.60;30.90;;;;;;4340862;33;20077;-37
2021/07/10 06:09:36;;;;;;;8.32;5.22;;;36.80;31.10;;;;;;4343333;33;20078;-36
2021/07/10 06:12:03;;;;;;;5.00;2.90;;;37.00;31.00;;;;;;4343456;33;20903;-37
2021/07/10 06:14:30;;;;;;;3.95;3.37;;;37.20;30.30;;;;;;4329452;33;20653;-38
2021/07/10 06:16:57;;;;;;;11.23;5.45;;;37.20;30.80;;;;;;4343445;33;20073;-37
2021/07/10 06:19:23;;;;;;;12.15;7.32;;;37.30;29.90;;;;;;4343122;33;20080;-37
2021/07/10 06:21:50;;;;;;;17.08;6.43;;;37.40;29.90;;;;;;4343036;33;20160;-37
2021/07/10 06:24:16;;;;;;;10.07;6.43;;;37.60;29.80;;;;;;4343121;33;20067;-37
2021/07/10 06:26:43;;;;;;;8.02;6.75;;;37.80;29.60;;;;;;4343169;33;20138;-38
2021/07/10 06:29:09;;;;;;;7.25;6.32;;;38.00;29.20;;;;;;4343084;33;20066;-37
2021/07/10 06:31:36;;;;;;;6.85;5.93;;;38.20;28.90;;;;;;4342946;33;20272;-37
2021/07/10 06:34:04;;;;;;;7.45;5.70;;;38.40;28.60;;;;;;4343303;33;20229;-37
2021/07/10 06:36:32;;;;;;;8.50;6.75;;;38.60;28.70;;;;;;4284305;33;20083;-37
2021/07/10 06:38:58;;;;;;;8.75;4.28;;;38.80;28.40;;;;;;4296424;33;20150;-37
2021/07/10 06:41:25;;;;;;;6.50;4.45;;;38.90;28.10;;;;;;4296648;33;20091;-38
2021/07/10 06:43:51;;;;;;;5.97;5.43;;;39.10;28.00;;;;;;4284677;33;20211;-38
2021/07/10 06:46:19;;;;;;;11.75;5.45;;;39.20;27.80;;;;;;4284781;33;20076;-37
2021/07/10 06:48:45;;;;;;;7.22;6.00;;;39.20;27.60;;;;;;4296355;33;20079;-37
2021/07/10 06:51:12;;;;;;;5.97;5.40;;;39.30;27.50;;;;;;4296643;33;20072;-38
2021/07/10 06:53:39;;;;;;;7.22;5.57;;;39.40;27.60;;;;;;4296390;33;20071;-37
2021/07/10 06:56:05;;;;;;;9.05;5.75;;;39.40;27.50;;;;;;4296424;33;20080;-38
2021/07/10 06:58:32;;;;;;;5.60;5.10;;;39.40;27.60;;;;;;4296203;33;20071;-39
2021/07/10 07:00:58;;;;;;;7.05;6.18;;;39.40;27.70;;;;;;4296438;33;20144;-38
2021/07/10 07:03:24;;;;;;;4.22;3.45;;;39.40;27.90;;;;;;4296324;33;20099;-38
2021/07/10 07:05:51;;;;;;;6.07;5.47;;;39.50;27.70;;;;;;4300540;33;20076;-38
2021/07/10 07:08:17;;;;;;;4.70;3.03;;;39.40;27.50;;;;;;4323825;33;20082;-38
2021/07/10 07:10:44;;;;;;;5.65;2.83;;;39.40;27.40;;;;;;4343020;33;20516;-38
2021/07/10 07:13:10;;;;;;;6.75;4.53;;;39.20;27.20;;;;;;4342608;33;20628;-37
2021/07/10 07:15:37;;;;;;;2.47;1.65;;;39.10;27.30;;;;;;4342383;33;20597;-37
2021/07/10 07:18:03;;;;;;;9.27;5.43;;;39.10;27.50;;;;;;4310308;33;20542;-38
2021/07/10 07:20:30;;;;;;;8.88;5.50;;;39.10;27.60;;;;;;4310540;33;20230;-38
2021/07/10 07:22:56;;;;;;;7.07;5.70;;;39.30;27.80;;;;;;4298597;33;20071;-38
2021/07/10 07:25:23;;;;;;;7.15;6.18;;;39.50;27.70;;;;;;4298637;33;20103;-38
2021/07/10 07:27:52;;;;;;;9.30;6.12;;;39.80;27.50;;;;;;4313366;33;20146;-38
2021/07/10 07:30:18;;;;;;;9.70;5.95;;;40.10;27.40;;;;;;4313355;33;20074;-37
2021/07/10 07:32:45;;;;;;;5.78;4.43;;;40.20;27.10;;;;;;4313744;33;20064;-38
2021/07/10 07:35:13;;;;;;;7.18;6.35;;;40.30;26.90;;;;;;4301326;33;20551;-38
2021/07/10 07:37:39;;;;;;;5.43;4.95;;;40.20;27.10;;;;;;4313329;33;20110;-38
2021/07/10 07:40:07;;;;;;;7.60;5.43;;;40.10;27.30;;;;;;4313609;33;20075;-38
2021/07/10 07:42:34;;;;;;;6.75;6.07;;;40.00;27.20;;;;;;4313451;33;20140;-38
2021/07/10 07:45:00;;;;;;;5.87;5.28;;;39.90;27.40;;;;;;4300933;33;20089;-38
2021/07/10 07:47:27;;;;;;;7.60;5.03;;;39.90;27.40;;;;;;4313360;33;20068;-38
2021/07/10 07:49:53;;;;;;;7.97;4.95;;;39.90;27.30;;;;;;4313327;33;20167;-38
2021/07/10 07:52:19;;;;;;;6.78;5.00;;;39.90;27.30;;;;;;4313095;33;20086;-38
2021/07/10 07:54:46;;;;;;;4.60;4.20;;;39.80;27.10;;;;;;4307290;33;20098;-38
2021/07/10 07:57:12;;;;;;;3.15;2.85;;;39.70;27.00;;;;;;4344853;33;20089;-37
2021/07/10 07:59:39;;;;;;;5.35;4.65;;;39.50;27.50;;;;;;4344980;33;20107;-37
2021/07/10 08:02:07;;;;;;;3.78;2.25;;;39.40;26.90;;;;;;4344805;33;20083;-37
2021/07/10 08:04:34;;;;;;;2.80;2.30;;;39.20;26.90;;;;;;4331371;33;20075;-37
2021/07/10 08:07:02;;;;;;;4.22;3.08;;;39.00;27.00;;;;;;4344437;33;20153;-37
2021/07/10 08:09:28;;;;;;;4.72;3.35;;;38.90;27.10;;;;;;4344901;33;20142;-37
2021/07/10 08:11:56;;;;;;;3.58;2.92;;;38.80;27.30;;;;;;4344673;33;20543;-37
2021/07/10 08:14:22;;;;;;;3.12;1.98;;;38.80;27.40;;;;;;4344708;33;20063;-37
2021/07/10 08:16:50;;;;;;;3.53;2.15;;;38.60;27.50;;;;;;4331251;33;20276;-37
2021/07/10 08:19:18;;;;;;;3.47;2.12;;;38.50;27.40;;;;;;4344980;33;20067;-37
2021/07/10 08:21:45;;;;;;;4.85;2.78;;;38.40;27.60;;;;;;4344369;33;20070;-36
2021/07/10 08:24:12;;;;;;;3.28;2.67;;;38.40;27.60;;;;;;4312245;33;20539;-36
2021/07/10 08:26:38;;;;;;;5.28;4.78;;;38.50;27.70;;;;;;4300506;33;20090;-37
2021/07/10 08:29:05;;;;;;;2.08;1.90;;;38.50;27.50;;;;;;4312533;33;20076;-38
2021/07/10 08:31:34;;;;;;;4.20;2.17;;;38.50;27.20;;;;;;4300249;33;20098;-44
2021/07/10 08:34:02;;;;;;;4.30;3.22;;;38.60;27.30;;;;;;4312718;33;20089;-38
2021/07/10 08:36:28;;;;;;;4.97;2.30;;;38.70;27.30;;;;;;4312352;33;20071;-38
2021/07/10 08:38:54;;;;;;;5.62;3.05;;;38.70;27.20;;;;;;4311954;33;20575;-38
2021/07/10 08:41:22;;;;;;;3.25;1.98;;;38.70;27.00;;;;;;4312267;33;20083;-37
2021/07/10 08:43:49;;;;;;;4.70;2.35;;;38.70;27.40;;;;;;4300501;33;20056;-37
2021/07/10 08:46:18;;;;;;;8.80;5.25;;;38.90;27.30;;;;;;4312444;33;20147;-38
2021/07/10 08:48:44;;;;;;;4.20;2.72;;;39.10;27.20;;;;;;4312199;33;20166;-37
2021/07/10 08:51:13;;;;;;;3.85;2.37;;;39.30;27.60;;;;;;4300013;33;20062;-37
2021/07/10 08:53:40;;;;;;;2.53;1.83;;;39.30;27.30;;;;;;4312257;33;20150;-37
2021/07/10 08:56:07;;;;;;;2.28;1.90;;;39.10;27.50;;;;;;4340022;33;20066;-37
2021/07/10 08:58:35;;;;;;;8.10;5.87;;;39.00;27.80;;;;;;4340750;32;20085;-36
2021/07/10 09:01:02;;;;;;;4.68;4.15;;;38.80;28.00;;;;;;4358851;32;20070;-37
2021/07/10 09:03:30;;;;;;;7.00;4.12;;;38.80;27.90;;;;;;4358499;32;20124;-38
2021/07/10 09:05:57;;;;;;;5.18;4.62;;;38.80;28.00;;;;;;4358493;32;20070;-38
2021/07/10 09:08:28;;;;;;;10.07;5.68;;;38.90;28.00;;;;;;4358592;32;20077;-37
2021/07/10 09:11:18;;;;;;;7.28;3.92;;;39.20;27.70;;;;;;4345054;32;20063;-37
2021/07/10 09:13:55;;;;;;;6.43;4.60;;;39.30;27.60;;;;;;4358659;32;20074;-37
2021/07/10 09:16:29;;;;;;;4.82;4.22;;;39.30;27.40;;;;;;4326480;33;20538;-37
2021/07/10 09:19:05;;;;;;;8.07;4.35;;;39.40;27.40;;;;;;4326863;33;20162;-37
2021/07/10 09:21:50;;;;;;;3.33;2.55;;;39.30;26.90;;;;;;4326298;33;20165;-36
2021/07/10 09:24:25;;;;;;;6.10;4.37;;;39.10;27.00;;;;;;4326750;33;20063;-37
2021/07/10 09:26:54;;;;;;;7.72;3.08;;;39.00;27.30;;;;;;4326576;33;20562;-38
2021/07/10 09:29:25;;;;;;;3.22;2.62;;;38.90;27.40;;;;;;4314719;33;20086;-43
2021/07/10 09:32:09;;;;;;;6.40;5.80;;;38.90;27.60;;;;;;4326865;33;20059;-38
2021/07/10 09:34:40;;;;;;;5.37;2.20;;;39.00;27.70;;;;;;4326235;33;20198;-38
2021/07/10 09:37:23;;;;;;;5.47;3.72;;;38.80;27.20;;;;;;4314416;33;20132;-38
2021/07/10 09:39:57;;;;;;;7.53;5.68;;;38.70;27.40;;;;;;4326500;33;20086;-37
2021/07/10 09:42:32;;;;;;;5.30;2.28;;;38.80;27.40;;;;;;4326327;33;20554;-37
2021/07/10 09:44:59;;;;;;;8.25;4.03;;;38.90;27.50;;;;;;4314209;33;20142;-37
2021/07/10 09:47:29;;;;;;;4.65;2.90;;;39.00;27.20;;;;;;4313916;33;20083;-37
2021/07/10 09:49:56;;;;;;;7.47;4.93;;;39.10;27.30;;;;;;4313386;33;20079;-37
2021/07/10 09:52:24;;;;;;;9.63;3.83;;;38.90;27.00;;;;;;4296539;33;20060;-38
2021/07/10 09:54:54;;;;;;;6.00;4.18;;;38.90;27.10;;;;;;4298430;33;20141;-37
2021/07/10 09:57:26;;;;;;;4.10;2.55;;;39.00;27.00;;;;;;4308196;33;20102;-38
2021/07/10 09:59:54;;;;;;;4.05;3.15;;;39.00;26.60;;;;;;4285522;33;20577;-38
2021/07/10 10:02:31;;;;;;;3.90;3.05;;;39.10;26.90;;;;;;4296632;33;20095;-37
2021/07/10 10:05:10;;;;;;;2.87;1.52;;;39.20;26.90;;;;;;4285086;33;20071;-37
2021/07/10 10:07:44;;;;;;;7.00;4.37;;;39.10;26.90;;;;;;4284725;33;20059;-37
2021/07/10 10:10:22;;;;;;;4.45;2.83;;;39.20;27.10;;;;;;4296474;33;20488;-37
2021/07/10 10:13:07;;;;;;;6.03;4.55;;;39.20;26.80;;;;;;4296949;33;20146;-37
2021/07/10 10:15:47;;;;;;;5.12;4.68;;;39.40;26.80;;;;;;4296779;33;20072;-37
2021/07/10 10:18:16;;;;;;;6.78;5.18;;;39.60;26.50;;;;;;4296106;33;20564;-38
2021/07/10 10:20:43;;;;;;;7.18;3.33;;;39.90;26.30;;;;;;4296584;33;20079;-37
2021/07/10 10:23:10;;;;;;;5.12;4.62;;;40.10;26.10;;;;;;4314900;33;20059;-38
2021/07/10 10:25:37;;;;;;;5.68;4.90;;;40.10;26.00;;;;;;4329582;33;20066;-39
2021/07/10 10:28:06;;;;;;;8.38;2.62;;;40.20;26.00;;;;;;4343180;33;20069;-38
2021/07/10 10:30:33;;;;;;;7.30;4.30;;;40.20;25.90;;;;;;4342766;33;20066;-39
2021/07/10 10:33:00;;;;;;;9.27;5.53;;;40.20;25.80;;;;;;4342905;33;20059;-38
2021/07/10 10:35:26;;;;;;;11.98;6.85;;;40.30;26.00;;;;;;4343154;33;20508;-39
2021/07/10 10:37:53;;;;;;;7.10;4.80;;;40.40;26.20;;;;;;4329463;33;20546;-37
2021/07/10 10:40:24;;;;;;;6.15;5.25;;;40.50;25.90;;;;;;4317197;33;20110;-38
2021/07/10 10:42:58;;;;;;;5.35;4.82;;;40.80;25.80;;;;;;4342958;33;20244;-38
2021/07/10 10:45:32;;;;;;;4.78;3.40;;;40.90;25.50;;;;;;4329855;33;20098;-38
2021/07/10 10:47:59;;;;;;;5.95;4.22;;;40.90;25.20;;;;;;4329189;33;20070;-38
2021/07/10 10:50:28;;;;;;;10.75;4.97;;;40.70;25.50;;;;;;4342864;33;20094;-38
2021/07/10 10:52:58;;;;;;;5.25;3.92;;;40.80;25.70;;;;;;4343290;33;20086;-37
2021/07/10 10:55:31;;;;;;;5.78;5.20;;;40.50;25.50;;;;;;4342691;33;20103;-38
2021/07/10 10:58:10;;;;;;;5.95;5.22;;;40.30;25.50;;;;;;4342810;33;20078;-38
2021/07/10 11:00:37;;;;;;;3.58;2.30;;;40.30;25.90;;;;;;4330005;33;20467;-37
2021/07/10 11:03:35;;;;;;;5.68;3.55;;;40.40;25.90;;;;;;4331887;33;20059;-37
2021/07/10 11:06:01;;;;;;;4.82;4.40;;;40.20;25.60;;;;;;4342844;33;20078;-38
2021/07/10 11:08:38;;;;;;;5.68;5.03;;;40.20;25.90;;;;;;4345679;33;20145;-37
2021/07/10 11:11:05;;;;;;;2.33;1.83;;;40.20;26.00;;;;;;4345672;33;20051;-38
2021/07/10 11:13:37;;;;;;;3.80;2.28;;;40.30;26.00;;;;;;4345744;33;20059;-38
2021/07/10 11:16:15;;;;;;;3.15;1.90;;;40.30;25.90;;;;;;4345535;33;20159;-38
2021/07/10 11:19:07;;;;;;;5.00;2.80;;;40.40;26.00;;;;;;4345700;33;20409;-37
2021/07/10 11:24:19;;;;;;;9.10;5.10;;;40.40;25.80;;;;;;4345308;33;20130;-37
2021/07/10 11:26:57;;;;;;;6.82;5.03;;;40.40;26.00;;;;;;4345315;33;20079;-38
2021/07/10 11:29:33;;;;;;;6.25;4.53;;;40.40;25.90;;;;;;4345095;33;20074;-38
2021/07/10 11:32:11;;;;;;;8.10;5.32;;;40.40;25.70;;;;;;4345583;33;20082;-38
2021/07/10 11:34:59;;;;;;;1.50;1.35;;;40.50;26.30;;;;;;4345314;33;20070;-38
2021/07/10 11:37:27;;;;;;;3.87;3.45;;;40.60;25.40;;;;;;4333604;33;20479;-37
2021/07/10 11:39:54;;;;;;;4.55;3.08;;;40.40;25.20;;;;;;4345126;33;20070;-38
2021/07/10 11:42:21;;;;;;;5.12;2.95;;;40.30;25.50;;;;;;4345317;33;20142;-38
2021/07/10 11:44:57;;;;;;;5.57;5.05;;;40.00;25.50;;;;;;4345484;33;20083;-38
2021/07/10 11:47:38;;;;;;;5.15;3.55;;;39.80;25.60;;;;;;4332224;33;20054;-38
2021/07/10 11:50:09;;;;;;;5.43;3.10;;;39.80;26.00;;;;;;4345304;33;20175;-37
2021/07/10 11:52:35;;;;;;;5.10;3.47;;;39.80;26.00;;;;;;4345330;33;20079;-37
2021/07/10 11:55:06;;;;;;;3.10;2.20;;;39.70;25.70;;;;;;4331349;33;20646;-38
2021/07/10 11:57:40;;;;;;;5.70;5.12;;;39.50;25.60;;;;;;4345312;33;20058;-38
2021/07/10 12:00:12;;;;;;;8.80;4.90;;;39.70;25.90;;;;;;4345063;32;20078;-36
2021/07/10 12:02:40;;;;;;;4.25;2.10;;;39.50;26.30;;;;;;4345001;32;20080;-39
2021/07/10 12:05:21;;;;;;;6.15;5.15;;;39.40;25.70;;;;;;4330705;33;20479;-36
2021/07/10 12:07:59;;;;;;;7.05;3.30;;;39.50;25.90;;;;;;4344299;32;20055;-37
2021/07/10 12:10:30;;;;;;;6.80;2.55;;;39.50;25.80;;;;;;4343328;33;20079;-38
2021/07/10 12:13:03;;;;;;;5.25;4.12;;;39.50;25.30;;;;;;4343941;33;20081;-37
2021/07/10 12:15:39;;;;;;;4.27;3.17;;;39.50;25.50;;;;;;4345131;32;20070;-37
2021/07/10 12:18:07;;;;;;;2.62;1.83;;;39.40;25.40;;;;;;4344869;32;20079;-38
2021/07/10 12:20:55;;;;;;;4.43;2.33;;;39.40;25.50;;;;;;4344640;32;20149;-38
2021/07/10 12:23:28;;;;;;;3.60;3.30;;;39.30;25.40;;;;;;4344302;32;20463;-39
2021/07/10 12:26:07;;;;;;;4.47;4.07;;;39.20;25.60;;;;;;4344136;32;20126;-38
2021/07/10 12:28:42;;;;;;;2.78;2.55;;;39.30;25.80;;;;;;4344846;32;20055;-38
2021/07/10 12:31:35;;;;;;;4.35;3.85;;;39.40;25.60;;;;;;4344588;32;20069;-38
2021/07/10 12:34:06;;;;;;;6.72;4.35;;;39.50;25.60;;;;;;4344794;32;20561;-37
2021/07/10 12:36:43;;;;;;;6.87;3.08;;;39.70;25.10;;;;;;4342796;33;20516;-38
2021/07/10 12:39:17;;;;;;;6.15;3.30;;;39.80;24.80;;;;;;4344200;33;20056;-37
2021/07/10 12:42:02;;;;;;;;;;;40.00;24.70;;;;;;4344667;32;20198;-38
2021/07/10 12:44:31;;;;;;;6.57;3.62;;;40.20;24.70;;;;;;4344582;32;20089;-38
2021/07/10 12:47:10;;;;;;;2.67;1.90;;;40.30;24.70;;;;;;4344028;32;20082;-38
2021/07/10 12:49:43;;;;;;;6.57;2.75;;;40.20;24.80;;;;;;4344271;32;20096;-37
2021/07/10 12:52:50;;;;;;;3.22;1.85;;;40.10;24.90;;;;;;4342871;33;20515;-36
2021/07/10 12:55:26;;;;;;;3.87;2.53;;;39.90;25.20;;;;;;4344115;32;20059;-38
2021/07/10 12:57:57;;;;;;;3.78;3.47;;;40.00;25.20;;;;;;4344287;32;20522;-37